Relevés horaires Matro (Suisse)


Relevés horaires à Matro - Mardi 25 Nov. 2014
Heure UTC1 Température [°C] Vent [km/h] Hum. [%] Pres.4 [hPa] Visi. [Km] Nébu. [octa] Préc.5 [mm] Cond.
2m. Res. Ros. Dir.2 Vit. Moy. Raf.3
23:00 1.8 -2.5 1.8 SE 16.7 18.5 22.2 100 850(-0.7/3h) -- -- -- --
22:00 2.2 -2.3 2.2 SE 18.5 18.5 20.4 100 850(-0.4/3h) -- -- -- --
21:00 2.1 -2.4 1.8 SSE 18.5 20.4 20.4 98 850(-0.4/3h) -- -- -- --
20:00 3.0 -1 1.6 SE 16.7 20.4 20.4 90 850(-0.4/3h) -- -- -- --
19:00 3.0 -1.3 2.0 SE 18.5 18.5 20.4 93 850(-0.6/3h) -- -- -- --
18:00 3.3 -0.9 1.2 SSE 18.5 22.2 27.8 86 850(-0.6/3h) -- -- -- --
17:00 3.5 -0.4 1.4 SSE 16.7 18.5 20.4 86 850(-0.7/3h) -- -- -- --
16:00 3.6 -0.2 1.1 SE 16.7 18.5 20.4 84 850(-0.8/3h) -- -- -- --
15:00 3.6 -0.5 0.7 SSE 18.5 22.2 27.8 81 850(-1.0/3h) -- -- -- --
14:00 3.9 -0.4 1.0 SSE 20.4 20.4 24.1 81 850(-1.1/3h) -- -- -- --
13:00 4.1 0.4 0.7 SSE 16.7 22.2 27.8 78 850(-1.1/3h) -- -- -- --
12:00 4.4 0 0.6 SSE 22.2 25.9 29.6 76 850(-0.8/3h) -- -- -- --
11:00 4.5 0.4 0.5 SSE 20.4 25.9 27.8 75 850(-0.3/3h) -- -- -- --
10:00 4.8 0.6 0.7 SSE 22.2 22.2 27.8 75 850(0.2/3h) -- -- -- --
09:00 5.0 1.3 0.3 SSE 18.5 25.9 29.6 72 850(0.2/3h) -- -- -- --
08:00 4.7 0.2 0.3 SE 24.1 25.9 27.8 73 850(-0.1/3h) -- -- -- --
07:00 5.0 0.6 -- SE 24.1 25.9 29.6 -- 850(-0.3/3h) -- -- -- --
06:00 5.3 1 -1.1 SSE 24.1 31.5 37.0 63 850(-0.5/3h) -- -- -- --
05:00 5.2 0.9 -1.6 SE 24.1 31.5 37.0 61 850(-0.7/3h) -- -- -- --
04:00 5.1 0.2 -1.7 SE 29.6 29.6 33.3 61 850(-0.9/3h) -- -- -- --
03:00 5.6 1.2 -1.6 SE 25.9 27.8 29.6 60 850(-1.0/3h) -- -- -- --
02:00 6.0 3 -1.8 ESE 14.8 22.2 22.2 57 850(-0.9/3h) -- -- -- --
01:00 6.1 2.2 -2.1 SE 22.2 22.2 25.9 56 850(-0.7/3h) -- -- -- --
00:00 6.3 2.1 -1.5 SE 25.9 25.9 27.8 57 850(-0.6/3h) -- -- -- --

1 Coordinated Universal Time. Actuellement il est 06:00 locale et 04:00 UTC.

2 Le vent souffle depuis la direction indiquée vers la direction oposée.

3 Les rafales max. sont disponible 40 min après l'heure du relevé.

4 Pour les stations d'altitude (plus de 600m) le géopotentiel du niveau le plus proche de la pression obligatoire est indiqué.

5 Les stations disposant d'un diffuseur peuvent indiquer "trace". Cela signifie que des précipitations ont touchés le sol mais que la quantité est inférieure à 0.1 mm.

Copyright

Les données affichées sur cette page sont la propriété exclusive de Météo Suisse.

Récapitulatif de la journée
Température [°C] Vent [km/h] Ensoleillement4 [h] Precipitations totale5 [mm] Pression [Hpa]
Min1 Max.2 Moy.3 Max. Min Max.
5.0 5.3 23.4 37.0 0 h 36 min 0 850.0 850.0

1 Température minimale relevée entre 18:00 UTC la veille et 18:00 UTC le jour donné.

2 Température maximale relevée entre 06:00 UTC le jour donné et 06:00 UTC le lendemain.

3 Vent moyen de la journée basé sur les relevés horaires.

4 Ensoleillement en heures relevé entre 06:00 UTC la veille et 06:00 UTC le jour donné.

5 Précipitations totales tombées entre 06:00 UTC la jour donné et 06:00 UTC le lendemain.

Graphiques horaires